Airfield :
LOGIN :

Register | Disclaimer

   EN    FR    IT 

 










Legend :    VFR   Marginal VFR   IFR   Intensive IFR   Very Intensive IFR
Visi :
Ceiling :
>= 8 km
>= 3000ft
5 to 8 km
1000 to 3000 ft
1500m to 5 km
500 to 1000 ft
800 to 1500m
200 to 500 ft
< 800m
< 200 ft
Symbols :   Thunderstorms  Fog  Heavy snow  Heavy precipitations  Wind > 20 kt
SIGMETs :     Misc.  Thunderstorms  Icing  Turbulence  Mountain Waves  Volcanic Ashes






- Airport Elevation : 12 ft
- IATA code : NCE


LFMN - Nice

CURRENT METAR :
  • 070530Z 33007KT CAVOK 23/16 Q1008

EXPIRED METARs :
  • 070500Z 32005KT CAVOK 23/17 Q1008
  • 070430Z 32005KT CAVOK 22/17 Q1008
  • 070400Z 32006KT CAVOK 22/18 Q1008
  • 070330Z 32006KT CAVOK 22/18 Q1007
  • 070300Z 32006KT 9999 FEW012 23/18 Q1007
  • 070230Z 32004KT 9999 FEW012 22/18 Q1007

TAF TAF LFMN
Valid from the 07 at 03:00 until the 08 at 09:00 UTC


070200Z 0703/0809 VRB05KT CAVOK
BECMG 0709/0711 18010KT
BECMG 0717/0719 VRB05KT
TEMPO 0800/0806 34010KT
BECMG 0807/0809 17010KT
ATIS : +33 4 93 17 21 16



MET'MAP, your aeronautical weather chart ! - Copyright ORBIFLY December 2007 - Disclaimer

ORBIFLY MET'MAP TEAM :

Programming & Development : Alexandra Zaïnal
Concept & original design : Baudouin d'Aumeries
Assistance for programming : Marc-Olivier Méhu
Technical & hardware support : Manuel Goepfert

Contact : metmap@orbifly.com




SOURCES & CREDITS :

   NOAA